createdAt,value
2022-08-04T00:02:19.967Z,100.00
2022-08-04T00:04:50.709Z,100.00
2022-08-04T00:07:44.947Z,100.00
2022-08-04T00:10:14.781Z,99.76
2022-08-04T00:12:45.156Z,100.00
2022-08-04T00:15:16.723Z,100.00
2022-08-04T00:17:47.037Z,100.00
2022-08-04T00:20:20.859Z,100.00
2022-08-04T00:22:49.411Z,100.00
2022-08-04T00:25:17.538Z,100.00
2022-08-04T00:27:46.271Z,100.00
2022-08-04T00:30:14.398Z,100.00
2022-08-04T00:32:42.939Z,100.00
2022-08-04T00:35:11.338Z,100.00
2022-08-04T00:37:41.237Z,100.00
2022-08-04T00:40:14.580Z,99.22
2022-08-04T00:42:58.310Z,97.01
2022-08-04T00:46:10.566Z,97.88
2022-08-04T00:48:38.843Z,100.00
2022-08-04T00:51:12.044Z,100.00
2022-08-04T00:53:49.946Z,100.00
2022-08-04T00:56:38.461Z,100.00
2022-08-04T00:59:12.419Z,100.00
2022-08-04T01:01:49.832Z,100.00
2022-08-04T01:04:22.502Z,100.00
2022-08-04T01:07:01.072Z,100.00
2022-08-04T01:09:38.950Z,100.00
2022-08-04T01:12:19.033Z,100.00
2022-08-04T01:14:55.880Z,100.00
2022-08-04T01:17:26.349Z,100.00
2022-08-04T01:19:56.031Z,100.00
2022-08-04T01:22:38.967Z,100.00
2022-08-04T01:25:24.748Z,100.00
2022-08-04T01:28:11.562Z,100.00
2022-08-04T01:30:44.230Z,100.00
2022-08-04T01:33:14.368Z,100.00
2022-08-04T01:35:48.589Z,100.00
2022-08-04T01:38:21.456Z,100.00
2022-08-04T01:40:53.149Z,100.00
2022-08-04T01:43:21.517Z,100.00
2022-08-04T01:45:52.387Z,100.00
2022-08-04T01:48:24.856Z,100.00
2022-08-04T01:50:53.258Z,100.00
2022-08-04T01:53:21.730Z,100.00
2022-08-04T01:55:54.330Z,100.00
2022-08-04T01:58:24.480Z,100.00
2022-08-04T02:00:58.089Z,100.00
2022-08-04T02:04:19.594Z,100.00
2022-08-04T02:06:19.623Z,100.00
2022-08-04T02:08:52.393Z,100.00
2022-08-04T02:11:22.100Z,100.00
2022-08-04T02:13:55.053Z,100.00
2022-08-04T02:16:30.166Z,100.00
2022-08-04T02:19:02.934Z,100.00
2022-08-04T02:21:42.714Z,100.00
2022-08-04T02:24:15.316Z,100.00
2022-08-04T02:26:46.415Z,100.00
2022-08-04T02:29:18.054Z,100.00
2022-08-04T02:31:50.458Z,100.00
2022-08-04T02:34:24.544Z,100.00
2022-08-04T02:36:53.552Z,100.00
2022-08-04T02:39:22.184Z,100.00
2022-08-04T02:41:52.056Z,100.00
2022-08-04T02:44:21.743Z,100.00
2022-08-04T02:46:52.786Z,100.00
2022-08-04T02:49:22.049Z,100.00
2022-08-04T02:51:51.710Z,100.00
2022-08-04T02:54:31.600Z,100.00
2022-08-04T02:57:04.504Z,100.00
2022-08-04T02:59:43.927Z,100.00
2022-08-04T03:02:13.357Z,100.00
2022-08-04T03:04:48.311Z,100.00
2022-08-04T03:07:25.364Z,100.00
2022-08-04T03:10:11.669Z,100.00
2022-08-04T03:13:09.890Z,100.00
2022-08-04T03:15:53.424Z,100.00
2022-08-04T03:18:36.102Z,100.00
2022-08-04T03:21:28.464Z,100.00
2022-08-04T03:24:19.624Z,100.00
2022-08-04T03:27:04.929Z,100.00
2022-08-04T03:29:55.155Z,100.00
2022-08-04T03:32:42.023Z,100.00
2022-08-04T03:35:30.770Z,100.00
2022-08-04T03:38:09.464Z,100.00
2022-08-04T03:40:48.517Z,100.00
2022-08-04T03:43:59.173Z,100.00
2022-08-04T03:46:38.179Z,100.00
2022-08-04T03:49:24.988Z,100.00
2022-08-04T03:52:20.442Z,100.00
2022-08-04T03:55:12.634Z,100.00
2022-08-04T03:57:48.498Z,100.00
2022-08-04T04:00:19.423Z,100.00
2022-08-04T04:03:01.820Z,100.00
2022-08-04T04:06:00.035Z,100.00
2022-08-04T04:08:49.661Z,100.00
2022-08-04T04:11:56.405Z,100.00
2022-08-04T04:14:37.984Z,100.00
2022-08-04T04:17:10.321Z,100.00
2022-08-04T04:19:49.800Z,100.00
2022-08-04T04:22:22.632Z,100.00
2022-08-04T04:24:59.046Z,100.00
2022-08-04T04:27:34.824Z,100.00
2022-08-04T04:30:06.146Z,100.00
2022-08-04T04:32:37.274Z,100.00
2022-08-04T04:35:12.089Z,100.00
2022-08-04T04:37:52.434Z,100.00
2022-08-04T04:40:29.557Z,100.00
2022-08-04T04:43:06.797Z,100.00
2022-08-04T04:45:37.371Z,100.00
2022-08-04T04:48:10.771Z,100.00
2022-08-04T04:50:45.228Z,100.00
2022-08-04T04:53:17.471Z,100.00
2022-08-04T04:55:52.223Z,100.00
2022-08-04T04:58:21.474Z,100.00
2022-08-04T05:01:09.224Z,100.00
2022-08-04T05:03:49.754Z,100.00
2022-08-04T05:06:25.363Z,100.00
2022-08-04T05:09:13.244Z,100.00
2022-08-04T05:12:02.613Z,100.00
2022-08-04T05:14:41.751Z,100.00
2022-08-04T05:17:16.556Z,100.00
2022-08-04T05:19:51.997Z,100.00
2022-08-04T05:22:23.611Z,100.00
2022-08-04T05:24:56.218Z,100.00
2022-08-04T05:27:29.412Z,100.00
2022-08-04T05:30:02.288Z,100.00
2022-08-04T05:32:32.312Z,100.00
2022-08-04T05:35:03.887Z,100.00
2022-08-04T05:37:34.123Z,100.00
2022-08-04T05:40:04.153Z,100.00
2022-08-04T05:42:32.800Z,100.00
2022-08-04T05:45:03.228Z,100.00
2022-08-04T05:47:34.269Z,94.71
2022-08-04T05:50:03.420Z,63.45
2022-08-04T05:52:32.176Z,56.76
2022-08-04T05:55:01.556Z,47.58
2022-08-04T05:57:30.032Z,52.57
2022-08-04T05:59:59.974Z,46.14
2022-08-04T06:02:31.316Z,48.15
2022-08-04T06:05:00.360Z,43.46
2022-08-04T06:07:28.487Z,44.59
2022-08-04T06:09:56.612Z,39.07
2022-08-04T06:12:27.283Z,37.14
2022-08-04T06:14:59.419Z,39.21
2022-08-04T06:19:56.326Z,36.56
2022-08-04T06:20:32.853Z,34.03
2022-08-04T06:23:07.133Z,37.27
2022-08-04T06:25:42.676Z,35.57
2022-08-04T06:28:11.247Z,36.28
2022-08-04T06:30:40.247Z,35.38
2022-08-04T06:33:24.411Z,34.62
2022-08-04T06:35:55.237Z,41.85
2022-08-04T06:38:24.137Z,50.80
2022-08-04T06:40:52.452Z,52.41
2022-08-04T06:43:21.639Z,53.31
2022-08-04T06:45:49.945Z,58.24
2022-08-04T06:48:19.979Z,58.67
2022-08-04T06:51:32.633Z,54.12
2022-08-04T06:53:39.145Z,58.85
2022-08-04T06:56:08.987Z,51.91
2022-08-04T06:58:38.156Z,57.67
2022-08-04T07:01:06.421Z,57.24
2022-08-04T07:03:36.048Z,52.91
2022-08-04T07:06:05.810Z,50.49
2022-08-04T07:08:36.180Z,55.11
2022-08-04T07:11:05.501Z,50.92
2022-08-04T07:13:33.983Z,53.78
2022-08-04T07:16:02.439Z,55.38
2022-08-04T07:18:31.808Z,54.19
2022-08-04T07:21:01.291Z,49.70
2022-08-04T07:23:29.479Z,46.61
2022-08-04T07:26:10.953Z,46.49
2022-08-04T07:28:41.965Z,48.69
2022-08-04T07:31:32.026Z,48.82
2022-08-04T07:34:17.742Z,48.81
2022-08-04T07:36:52.811Z,48.41
2022-08-04T07:39:27.461Z,46.34
2022-08-04T07:41:57.452Z,45.44
2022-08-04T07:44:25.898Z,46.01
2022-08-04T07:46:56.353Z,45.85
2022-08-04T07:49:56.043Z,45.66
2022-08-04T07:52:16.584Z,44.57
2022-08-04T07:54:44.794Z,45.28
2022-08-04T07:57:39.583Z,43.57
2022-08-04T08:00:01.064Z,42.58
2022-08-04T08:02:29.383Z,42.22
2022-08-04T08:04:57.561Z,41.76
2022-08-04T08:07:26.995Z,42.59
2022-08-04T08:09:55.234Z,41.38
2022-08-04T08:12:36.712Z,42.85
2022-08-04T08:15:13.517Z,42.62
2022-08-04T08:17:58.279Z,40.15
2022-08-04T08:20:30.370Z,39.91
2022-08-04T08:23:00.610Z,39.24
2022-08-04T08:25:28.793Z,38.24
2022-08-04T08:27:56.967Z,38.11
2022-08-04T08:30:25.316Z,40.00
2022-08-04T08:33:05.509Z,37.78
2022-08-04T08:35:46.909Z,40.14
2022-08-04T08:38:28.416Z,37.53
2022-08-04T08:40:59.821Z,36.98
2022-08-04T08:44:00.669Z,36.44
2022-08-04T08:46:49.643Z,36.17
2022-08-04T08:50:03.061Z,35.85
2022-08-04T08:52:57.547Z,36.85
2022-08-04T08:55:19.883Z,36.40
2022-08-04T08:58:04.343Z,37.30
2022-08-04T09:00:38.381Z,42.01
2022-08-04T09:03:18.413Z,36.41
2022-08-04T09:05:58.681Z,37.51
2022-08-04T09:08:38.340Z,36.73
2022-08-04T09:11:10.278Z,36.72
2022-08-04T09:13:41.482Z,36.96
2022-08-04T09:16:16.563Z,36.68
2022-08-04T09:18:47.951Z,35.93
2022-08-04T09:21:19.708Z,36.60
2022-08-04T09:23:50.404Z,35.92
2022-08-04T09:26:23.422Z,35.73
2022-08-04T09:28:55.163Z,35.50
2022-08-04T09:31:25.536Z,37.41
2022-08-04T09:34:00.069Z,35.19
2022-08-04T09:36:35.683Z,35.11
2022-08-04T09:39:07.554Z,33.78
2022-08-04T09:41:48.992Z,33.74
2022-08-04T09:44:50.974Z,34.17
2022-08-04T09:47:15.525Z,33.44
2022-08-04T09:49:47.353Z,33.50
2022-08-04T09:52:23.539Z,33.16
2022-08-04T09:54:53.899Z,33.67
2022-08-04T09:57:31.208Z,32.98
2022-08-04T10:00:03.023Z,34.50
2022-08-04T10:02:41.578Z,35.10
2022-08-04T10:05:12.686Z,33.32
2022-08-04T10:08:10.918Z,34.10
2022-08-04T10:10:38.067Z,35.91
2022-08-04T10:13:24.749Z,33.30
2022-08-04T10:15:59.485Z,33.91
2022-08-04T10:18:39.696Z,32.92
2022-08-04T10:21:15.388Z,34.66
2022-08-04T10:23:55.831Z,34.20
2022-08-04T10:26:32.018Z,36.27
2022-08-04T10:29:03.564Z,35.88
2022-08-04T10:31:34.898Z,32.90
2022-08-04T10:34:05.775Z,32.05
2022-08-04T10:36:41.189Z,31.24
2022-08-04T10:39:41.744Z,32.45
2022-08-04T10:42:07.219Z,32.91
2022-08-04T10:44:42.262Z,34.69
2022-08-04T10:47:17.075Z,33.55
2022-08-04T10:49:47.082Z,32.03
2022-08-04T10:52:19.137Z,31.97
2022-08-04T10:54:50.040Z,32.87
2022-08-04T10:57:22.188Z,34.30
2022-08-04T10:59:58.934Z,31.20
2022-08-04T11:02:43.603Z,32.79
2022-08-04T11:05:19.776Z,31.91
2022-08-04T11:07:50.235Z,33.71
2022-08-04T11:10:20.512Z,32.48
2022-08-04T11:12:55.144Z,30.94
2022-08-04T11:15:24.789Z,29.12
2022-08-04T11:17:56.937Z,31.55
2022-08-04T11:20:35.247Z,31.19
2022-08-04T11:23:06.922Z,33.19
2022-08-04T11:25:37.702Z,30.86
2022-08-04T11:28:10.397Z,30.66
2022-08-04T11:30:41.480Z,30.11
2022-08-04T11:33:19.946Z,30.73
2022-08-04T11:35:51.713Z,30.53
2022-08-04T11:38:23.852Z,28.53
2022-08-04T11:41:02.340Z,29.54
2022-08-04T11:44:01.389Z,29.01
2022-08-04T11:46:27.559Z,30.69
2022-08-04T11:49:01.945Z,29.16
2022-08-04T11:51:31.949Z,30.36
2022-08-04T11:54:00.493Z,30.51
2022-08-04T11:56:36.593Z,30.96
2022-08-04T11:59:08.715Z,30.84
2022-08-04T12:01:43.380Z,30.86
2022-08-04T12:04:15.137Z,30.74
2022-08-04T12:06:56.967Z,29.23
2022-08-04T12:09:33.204Z,30.14
2022-08-04T12:12:08.224Z,29.57
2022-08-04T12:14:48.100Z,30.07
2022-08-04T12:17:23.216Z,31.67
2022-08-04T12:20:04.278Z,30.55
2022-08-04T12:22:36.372Z,30.51
2022-08-04T12:25:09.804Z,28.63
2022-08-04T12:27:40.945Z,29.00
2022-08-04T12:30:59.211Z,28.01
2022-08-04T12:33:01.401Z,28.53
2022-08-04T12:35:35.154Z,31.42
2022-08-04T12:38:06.152Z,28.28
2022-08-04T12:40:38.276Z,28.48
2022-08-04T12:43:09.941Z,28.29
2022-08-04T12:45:44.524Z,28.67
2022-08-04T12:48:21.430Z,28.20
2022-08-04T12:50:51.911Z,28.70
2022-08-04T12:53:31.857Z,32.07
2022-08-04T12:56:02.377Z,28.67
2022-08-04T12:58:42.802Z,28.89
2022-08-04T13:02:09.123Z,28.22
2022-08-04T13:04:04.202Z,28.42
2022-08-04T13:06:35.412Z,28.26
2022-08-04T13:09:04.807Z,29.18
2022-08-04T13:11:35.996Z,29.01
2022-08-04T13:14:25.999Z,28.74
2022-08-04T13:16:57.926Z,28.36
2022-08-04T13:19:26.434Z,31.07
2022-08-04T13:22:02.892Z,28.97
2022-08-04T13:24:33.613Z,27.98
2022-08-04T13:27:06.128Z,28.11
2022-08-04T13:29:57.723Z,28.15
2022-08-04T13:32:25.251Z,27.52
2022-08-04T13:34:55.961Z,28.23
2022-08-04T13:37:27.774Z,27.86
2022-08-04T13:39:56.808Z,27.41
2022-08-04T13:42:26.405Z,28.31
2022-08-04T13:44:55.699Z,27.68
2022-08-04T13:47:27.935Z,28.29
2022-08-04T13:50:17.477Z,27.99
2022-08-04T13:52:47.205Z,27.46
2022-08-04T13:55:22.996Z,28.56
2022-08-04T13:57:54.261Z,29.06
2022-08-04T14:00:29.920Z,28.07
2022-08-04T14:03:01.507Z,29.07
2022-08-04T14:05:35.291Z,26.59
2022-08-04T14:08:22.106Z,29.06
2022-08-04T14:10:55.510Z,28.37
2022-08-04T14:13:30.846Z,29.30
2022-08-04T14:16:16.468Z,28.74
2022-08-04T14:18:44.768Z,27.73
2022-08-04T14:21:14.213Z,27.16
2022-08-04T14:23:47.608Z,27.56
2022-08-04T14:26:17.403Z,30.44
2022-08-04T14:29:25.827Z,26.94
2022-08-04T14:31:33.892Z,27.78
2022-08-04T14:34:09.926Z,27.34
2022-08-04T14:37:15.461Z,26.76
2022-08-04T14:39:40.107Z,27.73
2022-08-04T14:42:08.253Z,26.85
2022-08-04T14:44:51.227Z,26.38
2022-08-04T14:47:19.348Z,26.95
2022-08-04T14:49:55.144Z,29.74
2022-08-04T14:52:26.552Z,26.79
2022-08-04T14:54:56.257Z,26.80
2022-08-04T14:57:24.728Z,27.57
2022-08-04T15:00:00.499Z,27.42
2022-08-04T15:02:30.577Z,28.16
2022-08-04T15:06:02.227Z,27.60
2022-08-04T15:07:48.497Z,27.50
2022-08-04T15:10:18.084Z,26.51
2022-08-04T15:12:46.241Z,26.74
2022-08-04T15:15:36.003Z,27.84
2022-08-04T15:18:03.700Z,27.40
2022-08-04T15:20:32.687Z,28.21
2022-08-04T15:23:07.323Z,27.27
2022-08-04T15:25:44.977Z,27.82
2022-08-04T15:28:15.205Z,26.86
2022-08-04T15:30:45.452Z,27.12
2022-08-04T15:33:22.007Z,28.67
2022-08-04T15:35:51.485Z,29.39
2022-08-04T15:38:30.928Z,26.50
2022-08-04T15:41:06.163Z,28.40
2022-08-04T15:43:41.769Z,27.27
2022-08-04T15:46:43.136Z,26.57
2022-08-04T15:49:18.162Z,26.83
2022-08-04T15:51:46.204Z,27.14
2022-08-04T15:54:27.781Z,28.12
2022-08-04T15:57:01.352Z,28.81
2022-08-04T15:59:49.942Z,29.30
2022-08-04T16:02:45.439Z,30.67
2022-08-04T16:05:35.566Z,29.54
2022-08-04T16:08:14.268Z,26.45
2022-08-04T16:10:43.352Z,30.98
2022-08-04T16:13:14.870Z,28.11
2022-08-04T16:15:44.525Z,29.08
2022-08-04T16:18:26.323Z,26.76
2022-08-04T16:20:59.353Z,27.09
2022-08-04T16:23:54.299Z,30.67
2022-08-04T16:26:54.412Z,29.16
2022-08-04T16:29:35.546Z,27.38
2022-08-04T16:32:18.944Z,26.33
2022-08-04T16:34:54.187Z,29.41
2022-08-04T16:37:24.374Z,28.31
2022-08-04T16:40:12.461Z,28.58
2022-08-04T16:42:40.564Z,28.08
2022-08-04T16:45:13.627Z,28.43
2022-08-04T16:47:59.589Z,29.15
2022-08-04T16:50:27.860Z,27.42
2022-08-04T16:52:56.288Z,30.04
2022-08-04T16:55:27.904Z,26.77
2022-08-04T16:57:57.107Z,26.03
2022-08-04T17:00:34.495Z,25.25
2022-08-04T17:03:03.281Z,25.77
2022-08-04T17:05:38.322Z,26.66
2022-08-04T17:08:29.052Z,26.49
2022-08-04T17:10:56.486Z,27.04
2022-08-04T17:14:02.377Z,26.89
2022-08-04T17:16:18.256Z,26.55
2022-08-04T17:18:47.547Z,25.82
2022-08-04T17:21:19.484Z,25.90
2022-08-04T17:24:15.062Z,26.18
2022-08-04T17:26:39.471Z,26.33
2022-08-04T17:31:58.055Z,27.63
2022-08-04T17:34:26.581Z,27.80
2022-08-04T17:37:07.270Z,27.67
2022-08-04T17:39:43.326Z,28.33
2022-08-04T17:42:29.183Z,28.27
2022-08-04T17:45:48.672Z,28.28
2022-08-04T17:47:57.168Z,27.65
2022-08-04T17:50:25.500Z,28.74
2022-08-04T17:53:00.087Z,31.15
2022-08-04T17:55:40.199Z,32.06
2022-08-04T17:58:13.843Z,30.54
2022-08-04T18:03:53.551Z,30.28
2022-08-04T18:06:23.316Z,30.52
2022-08-04T18:08:57.755Z,31.79
2022-08-04T18:11:29.820Z,32.00
2022-08-04T18:14:09.878Z,31.48
2022-08-04T18:16:43.815Z,31.39
2022-08-04T18:19:14.421Z,31.64
2022-08-04T18:21:46.881Z,31.76
2022-08-04T18:24:35.829Z,31.68
2022-08-04T18:27:20.144Z,31.92
2022-08-04T18:30:15.330Z,32.46
2022-08-04T18:32:36.671Z,33.90
2022-08-04T18:35:22.848Z,34.78
2022-08-04T18:38:05.587Z,35.31
2022-08-04T18:40:52.690Z,37.00
2022-08-04T18:43:28.453Z,35.41
2022-08-04T18:45:59.555Z,35.45
2022-08-04T18:51:23.538Z,35.54
2022-08-04T18:53:58.706Z,35.69
2022-08-04T18:56:33.033Z,38.61
2022-08-04T18:59:03.045Z,38.10
2022-08-04T19:02:12.934Z,36.61
2022-08-04T19:04:33.762Z,37.06
2022-08-04T19:08:01.528Z,41.21
2022-08-04T19:09:57.723Z,42.22
2022-08-04T19:12:28.490Z,40.58
2022-08-04T19:14:58.201Z,40.43
2022-08-04T19:17:57.026Z,39.79
2022-08-04T19:20:25.625Z,43.58
2022-08-04T19:24:27.022Z,42.32
2022-08-04T19:25:58.896Z,43.51
2022-08-04T19:31:28.079Z,42.79
2022-08-04T19:34:07.328Z,43.41
2022-08-04T19:36:35.879Z,43.42
2022-08-04T19:39:11.518Z,49.05
2022-08-04T19:42:04.678Z,45.07
2022-08-04T19:44:30.602Z,45.30
2022-08-04T19:47:00.824Z,44.93
2022-08-04T19:50:04.623Z,48.19
2022-08-04T19:52:33.691Z,49.40
2022-08-04T19:57:54.006Z,51.70
2022-08-04T20:00:33.182Z,50.99
2022-08-04T20:03:02.681Z,51.22
2022-08-04T20:05:34.156Z,52.79
2022-08-04T20:08:19.163Z,51.79
2022-08-04T20:10:52.000Z,53.18
2022-08-04T20:13:20.873Z,52.75
2022-08-04T20:15:57.765Z,52.16
2022-08-04T20:18:35.127Z,52.66
2022-08-04T20:21:11.200Z,52.28
2022-08-04T20:23:48.301Z,53.70
2022-08-04T20:26:19.485Z,54.56
2022-08-04T20:28:51.835Z,53.61
2022-08-04T20:31:20.570Z,53.21
2022-08-04T20:33:53.791Z,54.20
2022-08-04T20:36:23.567Z,54.50
2022-08-04T20:38:54.550Z,55.08
2022-08-04T20:41:24.170Z,56.20
2022-08-04T20:43:52.296Z,58.16
2022-08-04T20:46:28.705Z,59.81
2022-08-04T20:48:58.010Z,56.04
2022-08-04T20:51:32.128Z,56.59
2022-08-04T20:54:03.397Z,55.84
2022-08-04T20:56:51.145Z,63.52
2022-08-04T20:59:22.227Z,60.54
2022-08-04T21:01:53.787Z,61.83
2022-08-04T21:04:35.582Z,61.84
2022-08-04T21:07:05.631Z,63.70
2022-08-04T21:09:38.387Z,64.45
2022-08-04T21:12:27.463Z,64.86
2022-08-04T21:15:01.220Z,63.36
2022-08-04T21:17:58.809Z,60.51
2022-08-04T21:20:29.365Z,60.16
2022-08-04T21:22:59.558Z,57.46
2022-08-04T21:25:27.852Z,58.44
2022-08-04T21:27:58.732Z,62.31
2022-08-04T21:30:27.193Z,64.11
2022-08-04T21:32:57.528Z,65.99
2022-08-04T21:35:36.801Z,65.81
2022-08-04T21:38:16.580Z,73.15
2022-08-04T21:40:52.318Z,72.24
2022-08-04T21:43:23.686Z,69.41
2022-08-04T21:46:04.954Z,73.52
2022-08-04T21:48:33.679Z,81.20
2022-08-04T21:51:21.689Z,79.20
2022-08-04T21:54:01.925Z,83.56
2022-08-04T21:56:30.040Z,83.29
2022-08-04T21:59:02.621Z,77.61
2022-08-04T22:02:36.812Z,73.35
2022-08-04T22:05:07.313Z,75.89
2022-08-04T22:07:50.324Z,75.84
2022-08-04T22:10:22.437Z,76.90
2022-08-04T22:13:07.072Z,65.36
2022-08-04T22:16:04.954Z,65.99
2022-08-04T22:18:27.531Z,71.70
2022-08-04T22:20:56.068Z,68.22
2022-08-04T22:23:25.209Z,67.43
2022-08-04T22:25:56.180Z,66.27
2022-08-04T22:28:28.159Z,67.07
2022-08-04T22:30:57.194Z,64.11
2022-08-04T22:33:55.141Z,63.91
2022-08-04T22:36:15.447Z,63.04
2022-08-04T22:38:49.976Z,65.11
2022-08-04T22:41:34.002Z,62.84
2022-08-04T22:44:15.357Z,67.20
2022-08-04T22:46:44.218Z,62.13
2022-08-04T22:49:15.244Z,68.57
2022-08-04T22:51:48.277Z,64.11
2022-08-04T22:54:18.899Z,71.37
2022-08-04T22:56:47.484Z,69.03
2022-08-04T22:59:15.541Z,68.91
2022-08-04T23:01:59.755Z,68.58
2022-08-04T23:04:31.162Z,68.85
2022-08-04T23:07:00.037Z,75.30
2022-08-04T23:09:50.254Z,70.59
2022-08-04T23:12:27.221Z,68.05
2022-08-04T23:14:56.875Z,64.49
2022-08-04T23:17:25.853Z,69.77
2022-08-04T23:19:59.348Z,65.46
2022-08-04T23:22:41.698Z,66.82
2022-08-04T23:25:15.496Z,76.38
2022-08-04T23:27:51.274Z,73.02
2022-08-04T23:30:21.674Z,80.35
2022-08-04T23:32:52.706Z,80.02
2022-08-04T23:35:22.599Z,80.41
2022-08-04T23:37:56.723Z,73.41
2022-08-04T23:40:33.072Z,74.04
2022-08-04T23:43:02.207Z,74.57
2022-08-04T23:46:04.574Z,80.77
2022-08-04T23:48:28.590Z,79.79
2022-08-04T23:51:03.773Z,73.01
2022-08-04T23:54:02.099Z,71.68
2022-08-04T23:56:31.960Z,73.82
2022-08-04T23:59:00.548Z,71.84
